createdAt,value
2018-11-28T00:02:07.842Z,2.80
2018-11-28T00:04:36.012Z,2.90
2018-11-28T00:07:04.266Z,2.90
2018-11-28T00:09:32.545Z,2.80
2018-11-28T00:12:00.722Z,2.90
2018-11-28T00:14:28.973Z,2.90
2018-11-28T00:16:57.146Z,2.80
2018-11-28T00:19:25.323Z,2.80
2018-11-28T00:21:53.522Z,2.80
2018-11-28T00:24:21.691Z,2.80
2018-11-28T00:26:49.856Z,2.80
2018-11-28T00:29:18.060Z,2.90
2018-11-28T00:31:46.268Z,3.00
2018-11-28T00:34:14.488Z,2.90
2018-11-28T00:36:42.650Z,2.90
2018-11-28T00:39:10.834Z,2.80
2018-11-28T00:41:39.004Z,3.00
2018-11-28T00:44:07.176Z,3.10
2018-11-28T00:46:35.347Z,3.20
2018-11-28T00:49:03.523Z,3.20
2018-11-28T00:51:31.769Z,3.20
2018-11-28T00:54:00.067Z,3.30
2018-11-28T00:56:28.293Z,3.30
2018-11-28T00:58:56.530Z,3.30
2018-11-28T01:01:24.700Z,3.10
2018-11-28T01:03:52.876Z,3.00
2018-11-28T01:06:21.053Z,3.00
2018-11-28T01:08:49.254Z,2.90
2018-11-28T01:11:17.551Z,2.90
2018-11-28T01:13:45.753Z,2.90
2018-11-28T01:16:13.936Z,2.90
2018-11-28T01:18:42.102Z,2.90
2018-11-28T01:21:10.332Z,2.80
2018-11-28T01:23:38.520Z,2.90
2018-11-28T01:26:06.708Z,2.90
2018-11-28T01:28:34.916Z,2.90
2018-11-28T01:31:03.088Z,2.90
2018-11-28T01:33:31.346Z,2.90
2018-11-28T01:35:59.582Z,2.90
2018-11-28T01:38:27.772Z,2.80
2018-11-28T01:40:55.969Z,2.80
2018-11-28T01:43:24.192Z,2.80
2018-11-28T01:45:52.377Z,2.80
2018-11-28T01:48:20.616Z,2.80
2018-11-28T01:50:48.803Z,2.80
2018-11-28T01:53:16.983Z,2.70
2018-11-28T01:55:45.162Z,2.70
2018-11-28T01:58:13.361Z,2.70
2018-11-28T02:00:41.543Z,2.70
2018-11-28T02:03:09.736Z,2.70
2018-11-28T02:05:37.941Z,2.80
2018-11-28T02:08:06.099Z,2.80
2018-11-28T02:10:34.284Z,2.70
2018-11-28T02:13:02.471Z,2.70
2018-11-28T02:15:30.697Z,2.70
2018-11-28T02:17:58.855Z,2.70
2018-11-28T02:20:27.031Z,2.70
2018-11-28T02:23:06.697Z,2.70
2018-11-28T02:25:34.916Z,2.70
2018-11-28T02:28:03.125Z,2.80
2018-11-28T02:30:31.301Z,2.70
2018-11-28T02:32:59.440Z,2.70
2018-11-28T02:35:27.647Z,2.80
2018-11-28T02:37:55.837Z,2.80
2018-11-28T02:40:24.029Z,2.80
2018-11-28T02:42:52.204Z,2.90
2018-11-28T02:45:21.225Z,2.90
2018-11-28T02:47:49.596Z,2.90
2018-11-28T02:50:17.781Z,2.90
2018-11-28T02:52:46.023Z,3.00
2018-11-28T02:55:15.054Z,3.00
2018-11-28T02:57:45.212Z,3.00
2018-11-28T03:00:16.562Z,2.90
2018-11-28T03:02:44.784Z,2.90
2018-11-28T03:05:13.420Z,2.90
2018-11-28T03:07:41.641Z,2.90
2018-11-28T03:10:11.468Z,2.90
2018-11-28T03:12:39.712Z,2.90
2018-11-28T03:15:10.176Z,3.00
2018-11-28T03:17:38.386Z,3.00
2018-11-28T03:20:08.463Z,3.10
2018-11-28T03:22:36.633Z,3.20
2018-11-28T03:25:05.690Z,3.20
2018-11-28T03:27:33.860Z,3.20
2018-11-28T03:30:12.820Z,3.10
2018-11-28T03:32:41.065Z,3.20
2018-11-28T03:35:10.720Z,3.20
2018-11-28T03:37:38.915Z,3.10
2018-11-28T03:40:07.226Z,3.00
2018-11-28T03:42:35.453Z,3.00
2018-11-28T03:45:03.812Z,2.90
2018-11-28T03:47:32.035Z,2.90
2018-11-28T03:50:00.243Z,2.90
2018-11-28T03:52:28.428Z,2.90
2018-11-28T03:54:56.600Z,2.90
2018-11-28T03:57:24.792Z,2.90
2018-11-28T03:59:53.008Z,2.90
2018-11-28T04:02:21.179Z,2.90
2018-11-28T04:04:49.392Z,3.00
2018-11-28T04:07:17.560Z,3.00
2018-11-28T04:09:45.771Z,3.00
2018-11-28T04:12:13.957Z,2.80
2018-11-28T04:14:42.164Z,2.80
2018-11-28T04:17:10.326Z,2.80
2018-11-28T04:19:38.491Z,2.90
2018-11-28T04:22:06.652Z,2.80
2018-11-28T04:24:34.867Z,2.70
2018-11-28T04:27:03.012Z,2.60
2018-11-28T04:29:31.207Z,2.50
2018-11-28T04:31:59.375Z,2.50
2018-11-28T04:34:27.542Z,2.60
2018-11-28T04:36:55.732Z,2.50
2018-11-28T04:39:23.901Z,2.50
2018-11-28T04:41:52.072Z,2.40
2018-11-28T04:44:20.303Z,2.40
2018-11-28T04:46:48.505Z,2.40
2018-11-28T04:49:16.693Z,2.50
2018-11-28T04:51:44.855Z,2.50
2018-11-28T04:54:13.045Z,2.40
2018-11-28T04:56:41.188Z,2.30
2018-11-28T04:59:09.332Z,2.30
2018-11-28T05:01:37.532Z,2.30
2018-11-28T05:04:05.992Z,2.20
2018-11-28T05:07:38.420Z,2.10
2018-11-28T05:10:15.814Z,2.10
2018-11-28T05:12:43.982Z,2.10
2018-11-28T05:15:13.068Z,2.00
2018-11-28T05:17:41.360Z,2.00
2018-11-28T05:20:14.553Z,2.00
2018-11-28T05:22:42.786Z,2.00
2018-11-28T05:25:13.510Z,2.00
2018-11-28T05:27:41.740Z,2.00
2018-11-28T05:30:14.293Z,2.00
2018-11-28T05:32:42.491Z,2.00
2018-11-28T05:35:12.079Z,2.00
2018-11-28T05:37:40.365Z,1.90
2018-11-28T05:40:10.524Z,1.90
2018-11-28T05:42:38.749Z,1.90
2018-11-28T05:45:08.649Z,1.90
2018-11-28T05:47:37.162Z,1.80
2018-11-28T05:50:08.168Z,1.80
2018-11-28T05:52:36.430Z,1.80
2018-11-28T05:55:05.634Z,1.80
2018-11-28T05:57:33.815Z,1.80
2018-11-28T06:00:02.001Z,1.70
2018-11-28T06:02:30.188Z,1.60
2018-11-28T06:04:58.473Z,1.50
2018-11-28T06:07:26.639Z,1.50
2018-11-28T06:09:54.812Z,1.50
2018-11-28T06:12:22.987Z,1.50
2018-11-28T06:14:51.159Z,1.50
2018-11-28T06:17:19.338Z,1.40
2018-11-28T06:19:47.541Z,1.40
2018-11-28T06:22:15.712Z,1.50
2018-11-28T06:24:43.912Z,1.50
2018-11-28T06:27:12.087Z,1.40
2018-11-28T06:29:40.232Z,1.30
2018-11-28T06:32:08.410Z,1.20
2018-11-28T06:34:36.580Z,1.20
2018-11-28T06:37:04.992Z,1.10
2018-11-28T06:39:33.151Z,1.10
2018-11-28T06:42:01.377Z,1.00
2018-11-28T06:44:29.573Z,1.00
2018-11-28T06:46:57.747Z,1.10
2018-11-28T06:49:25.932Z,1.10
2018-11-28T06:51:54.173Z,1.10
2018-11-28T06:54:22.333Z,1.00
2018-11-28T06:56:50.541Z,1.10
2018-11-28T06:59:18.726Z,1.10
2018-11-28T07:01:46.936Z,1.10
2018-11-28T07:04:15.150Z,1.10
2018-11-28T07:06:43.300Z,1.10
2018-11-28T07:09:11.448Z,1.10
2018-11-28T07:11:39.602Z,1.20
2018-11-28T07:14:07.760Z,1.20
2018-11-28T07:16:35.894Z,1.30
2018-11-28T07:19:08.548Z,1.30
2018-11-28T07:21:36.739Z,1.40
2018-11-28T07:24:05.637Z,1.40
2018-11-28T07:26:33.824Z,1.50
2018-11-28T07:29:02.104Z,1.50
2018-11-28T07:31:30.288Z,1.50
2018-11-28T07:33:58.554Z,1.60
2018-11-28T07:36:26.741Z,1.60
2018-11-28T07:38:54.950Z,1.70
2018-11-28T07:41:24.261Z,1.70
2018-11-28T07:43:52.424Z,1.80
2018-11-28T07:46:20.587Z,1.70
2018-11-28T07:48:48.762Z,1.70
2018-11-28T07:51:16.920Z,1.60
2018-11-28T07:53:45.129Z,1.60
2018-11-28T07:56:13.268Z,1.60
2018-11-28T07:58:41.476Z,1.60
2018-11-28T08:01:09.717Z,1.60
2018-11-28T08:03:37.904Z,1.60
2018-11-28T08:06:06.092Z,1.50
2018-11-28T08:08:37.400Z,1.40
2018-11-28T08:11:06.742Z,1.50
2018-11-28T08:13:35.104Z,1.50
2018-11-28T08:16:03.376Z,1.50
2018-11-28T08:18:31.636Z,1.60
2018-11-28T08:20:59.823Z,1.60
2018-11-28T08:23:28.173Z,1.60
2018-11-28T08:25:56.220Z,1.70
2018-11-28T08:28:24.440Z,1.70
2018-11-28T08:30:52.800Z,1.70
2018-11-28T08:33:21.044Z,1.70
2018-11-28T08:35:49.251Z,1.80
2018-11-28T08:38:17.424Z,1.90
2018-11-28T08:40:45.648Z,1.80
2018-11-28T08:43:13.843Z,1.80
2018-11-28T08:45:42.036Z,1.90
2018-11-28T08:48:10.271Z,1.90
2018-11-28T08:50:38.755Z,1.90
2018-11-28T08:53:07.266Z,2.00
2018-11-28T08:55:35.433Z,2.10
2018-11-28T08:58:03.617Z,2.20
2018-11-28T09:00:31.796Z,2.30
2018-11-28T09:02:59.948Z,2.40
2018-11-28T09:05:28.141Z,2.50
2018-11-28T09:07:56.306Z,2.60
2018-11-28T09:10:24.653Z,2.60
2018-11-28T09:12:52.757Z,2.60
2018-11-28T09:15:28.067Z,2.60
2018-11-28T09:17:56.564Z,2.60
2018-11-28T09:20:24.789Z,2.60
2018-11-28T09:22:52.973Z,2.80
2018-11-28T09:25:21.406Z,2.80
2018-11-28T09:27:51.062Z,2.90
2018-11-28T09:30:19.902Z,2.80
2018-11-28T09:32:48.993Z,2.80
2018-11-28T09:35:17.339Z,2.90
2018-11-28T09:37:46.186Z,3.00
2018-11-28T09:40:19.665Z,3.00
2018-11-28T09:42:48.220Z,3.10
2018-11-28T09:45:17.414Z,3.20
2018-11-28T09:47:45.610Z,3.20
2018-11-28T09:50:19.783Z,3.30
2018-11-28T09:52:48.156Z,3.30
2018-11-28T09:55:21.625Z,3.40
2018-11-28T09:57:49.781Z,3.40
2018-11-28T10:00:19.897Z,3.60
2018-11-28T10:02:48.742Z,3.70
2018-11-28T10:05:22.043Z,3.80
2018-11-28T10:07:50.180Z,4.00
2018-11-28T10:10:18.340Z,4.20
2018-11-28T10:12:46.467Z,4.30
2018-11-28T10:15:19.685Z,4.50
2018-11-28T10:17:47.933Z,4.70
2018-11-28T10:20:16.707Z,4.90
2018-11-28T10:22:44.978Z,5.10
2018-11-28T10:25:17.057Z,5.20
2018-11-28T10:27:46.549Z,5.50
2018-11-28T10:30:18.947Z,5.60
2018-11-28T10:32:47.626Z,5.80
2018-11-28T10:35:15.805Z,5.90
2018-11-28T10:37:43.963Z,6.00
2018-11-28T10:40:14.936Z,6.10
2018-11-28T10:42:43.060Z,6.20
2018-11-28T10:45:12.694Z,6.30
2018-11-28T10:47:40.821Z,6.40
2018-11-28T10:50:13.040Z,6.50
2018-11-28T10:52:41.164Z,6.70
2018-11-28T10:55:12.644Z,6.90
2018-11-28T10:57:40.765Z,7.30
2018-11-28T11:00:17.002Z,7.60
2018-11-28T11:02:50.680Z,7.80
2018-11-28T11:05:24.390Z,8.00
2018-11-28T11:07:58.077Z,8.20
2018-11-28T11:10:31.772Z,8.50
2018-11-28T11:14:07.120Z,8.80
2018-11-28T11:16:35.273Z,9.20
2018-11-28T11:19:03.410Z,10.00
2018-11-28T11:21:31.584Z,10.60
2018-11-28T11:23:59.823Z,11.80
2018-11-28T11:26:27.952Z,13.10
2018-11-28T11:28:56.068Z,14.40
2018-11-28T11:31:24.236Z,15.40
2018-11-28T11:33:52.376Z,16.50
2018-11-28T11:36:20.518Z,17.70
2018-11-28T11:38:48.657Z,17.90
2018-11-28T11:41:16.804Z,17.10
2018-11-28T11:43:44.939Z,16.40
2018-11-28T11:46:13.112Z,16.20
2018-11-28T11:48:41.250Z,16.30
2018-11-28T11:51:09.508Z,16.50
2018-11-28T11:53:37.645Z,16.70
2018-11-28T11:56:05.799Z,16.70
2018-11-28T11:58:33.931Z,17.20
2018-11-28T12:01:02.080Z,17.60
2018-11-28T12:03:30.277Z,17.80
2018-11-28T12:05:58.980Z,18.40
2018-11-28T12:08:28.416Z,18.10
2018-11-28T12:10:56.585Z,17.60
2018-11-28T12:13:24.736Z,17.90
2018-11-28T12:15:53.094Z,17.80
2018-11-28T12:18:21.073Z,17.60
2018-11-28T12:20:52.581Z,17.30
2018-11-28T12:23:20.734Z,16.80
2018-11-28T12:25:48.888Z,16.10
2018-11-28T12:28:17.027Z,15.70
2018-11-28T12:30:45.167Z,15.30
2018-11-28T12:33:13.320Z,14.70
2018-11-28T12:35:41.481Z,14.50
2018-11-28T12:38:09.611Z,14.00
2018-11-28T12:40:37.819Z,13.90
2018-11-28T12:43:07.855Z,13.80
2018-11-28T12:45:36.782Z,13.50
2018-11-28T12:48:04.909Z,13.00
2018-11-28T12:50:33.075Z,12.40
2018-11-28T12:53:01.983Z,12.00
2018-11-28T12:55:31.594Z,11.70
2018-11-28T12:57:59.731Z,11.30
2018-11-28T13:00:29.068Z,10.90
2018-11-28T13:02:57.239Z,10.60
2018-11-28T13:05:26.254Z,10.30
2018-11-28T13:07:54.443Z,10.00
2018-11-28T13:10:24.926Z,9.80
2018-11-28T13:12:53.303Z,9.60
2018-11-28T13:15:22.403Z,9.30
2018-11-28T13:17:50.540Z,9.10
2018-11-28T13:20:19.470Z,8.90
2018-11-28T13:22:48.777Z,8.70
2018-11-28T13:25:19.096Z,8.40
2018-11-28T13:27:47.236Z,8.30
2018-11-28T13:30:16.365Z,8.10
2018-11-28T13:32:44.962Z,8.00
2018-11-28T13:35:14.264Z,7.90
2018-11-28T13:37:43.376Z,7.90
2018-11-28T13:40:12.666Z,8.00
2018-11-28T13:42:40.976Z,8.00
2018-11-28T13:45:11.775Z,8.00
2018-11-28T13:47:39.986Z,8.00
2018-11-28T13:50:09.881Z,7.90
2018-11-28T13:52:38.024Z,7.90
2018-11-28T13:55:39.219Z,7.80
2018-11-28T13:57:40.701Z,7.80
2018-11-28T14:00:09.591Z,7.80
2018-11-28T14:02:37.972Z,7.70
2018-11-28T14:05:08.512Z,7.60
2018-11-28T14:07:36.667Z,7.50
2018-11-28T14:10:07.528Z,7.40
2018-11-28T14:12:35.667Z,7.30
2018-11-28T14:15:05.545Z,7.20
2018-11-28T14:17:33.711Z,7.10
2018-11-28T14:20:01.883Z,7.10
2018-11-28T14:22:30.098Z,7.00
2018-11-28T14:24:58.212Z,6.90
2018-11-28T14:27:26.368Z,6.80
2018-11-28T14:29:54.508Z,6.80
2018-11-28T14:32:22.647Z,6.80
2018-11-28T14:34:50.817Z,6.90
2018-11-28T14:37:18.958Z,6.80
2018-11-28T14:39:47.103Z,6.70
2018-11-28T14:42:15.277Z,6.60
2018-11-28T14:44:43.431Z,6.60
2018-11-28T14:47:11.590Z,6.60
2018-11-28T14:49:39.766Z,6.60
2018-11-28T14:52:07.936Z,6.50
2018-11-28T14:54:36.043Z,6.40
2018-11-28T14:57:04.178Z,6.40
2018-11-28T14:59:32.376Z,6.30
2018-11-28T15:02:00.538Z,6.30
2018-11-28T15:04:28.691Z,6.20
2018-11-28T15:06:59.995Z,6.20
2018-11-28T15:09:35.313Z,6.10
2018-11-28T15:12:11.508Z,6.10
2018-11-28T15:14:34.690Z,6.00
2018-11-28T15:17:02.840Z,6.00
2018-11-28T15:19:31.004Z,6.00
2018-11-28T15:21:59.146Z,5.80
2018-11-28T15:24:27.298Z,5.70
2018-11-28T15:26:55.500Z,5.70
2018-11-28T15:29:23.654Z,5.70
2018-11-28T15:31:51.820Z,5.70
2018-11-28T15:34:19.969Z,5.80
2018-11-28T15:36:48.924Z,5.70
2018-11-28T15:39:17.076Z,5.70
2018-11-28T15:41:45.214Z,5.70
2018-11-28T16:00:13.792Z,5.60
2018-11-28T16:06:07.414Z,5.40
2018-11-28T16:09:07.247Z,5.30
2018-11-28T16:15:01.486Z,5.30
2018-11-28T16:17:29.700Z,5.30
2018-11-28T16:19:57.893Z,5.30
2018-11-28T16:22:26.134Z,5.30
2018-11-28T16:24:54.352Z,5.30
2018-11-28T16:27:22.506Z,5.30
2018-11-28T16:29:50.718Z,5.30
2018-11-28T16:32:18.847Z,5.30
2018-11-28T16:34:47.034Z,5.20
2018-11-28T16:37:15.249Z,5.20
2018-11-28T16:39:43.437Z,5.20
2018-11-28T16:42:11.617Z,5.10
2018-11-28T16:44:39.791Z,5.10
2018-11-28T16:47:07.967Z,5.10
2018-11-28T16:49:36.253Z,5.10
2018-11-28T16:52:04.586Z,5.10
2018-11-28T16:54:32.812Z,5.00
2018-11-28T16:57:00.992Z,5.00
2018-11-28T16:59:30.841Z,5.00
2018-11-28T17:01:57.364Z,5.00
2018-11-28T17:04:26.337Z,4.90
2018-11-28T17:06:54.549Z,4.90
2018-11-28T17:09:22.728Z,4.80
2018-11-28T17:11:51.013Z,4.80
2018-11-28T17:14:19.212Z,4.80
2018-11-28T17:16:47.501Z,4.80
2018-11-28T17:19:15.984Z,5.00
2018-11-28T17:21:44.348Z,5.00
2018-11-28T17:24:12.617Z,4.90
2018-11-28T17:26:40.868Z,4.70
2018-11-28T17:29:09.102Z,4.70
2018-11-28T17:31:37.424Z,4.70
2018-11-28T17:34:05.866Z,4.70
2018-11-28T17:56:34.263Z,4.60
2018-11-28T17:59:08.432Z,4.20
2018-11-28T18:01:43.316Z,4.20
2018-11-28T18:04:12.564Z,4.10
2018-11-28T18:06:47.924Z,4.00
2018-11-28T18:09:16.596Z,4.00
2018-11-28T18:11:45.126Z,4.00
2018-11-28T18:14:13.396Z,3.90
2018-11-28T18:16:41.617Z,3.90
2018-11-28T18:19:09.817Z,3.80
2018-11-28T18:21:57.473Z,3.80
2018-11-28T18:24:25.656Z,3.80
2018-11-28T18:26:53.857Z,3.70
2018-11-28T18:29:22.042Z,3.70
2018-11-28T18:31:50.215Z,3.80
2018-11-28T18:34:18.401Z,3.70
2018-11-28T18:36:46.561Z,3.70
2018-11-28T18:39:14.756Z,3.60
2018-11-28T18:41:42.928Z,3.50
2018-11-28T18:44:11.103Z,3.30
2018-11-28T18:46:39.324Z,3.30
2018-11-28T18:49:07.531Z,3.30
2018-11-28T18:51:35.765Z,3.30
2018-11-28T18:54:03.925Z,3.30
2018-11-28T18:56:32.111Z,3.30
2018-11-28T18:59:00.308Z,3.30
2018-11-28T19:01:28.491Z,3.30
2018-11-28T19:03:56.672Z,3.30
2018-11-28T19:06:24.933Z,3.30
2018-11-28T19:08:53.214Z,3.30
2018-11-28T19:11:21.431Z,3.20
2018-11-28T19:13:49.650Z,3.20
2018-11-28T19:16:17.807Z,3.20
2018-11-28T19:18:46.020Z,3.30
2018-11-28T19:21:14.196Z,3.30
2018-11-28T19:23:49.056Z,3.20
2018-11-28T19:26:17.654Z,3.20
2018-11-28T19:28:45.807Z,3.20
2018-11-28T19:31:14.233Z,3.20
2018-11-28T19:33:42.467Z,3.30
2018-11-28T19:36:11.600Z,3.30
2018-11-28T19:38:39.758Z,3.20
2018-11-28T19:41:10.251Z,3.30
2018-11-28T19:43:38.455Z,3.20
2018-11-28T19:46:06.878Z,3.10
2018-11-28T19:48:35.064Z,3.10
2018-11-28T19:51:03.247Z,3.10
2018-11-28T19:53:31.436Z,3.20
2018-11-28T19:55:59.681Z,3.20
2018-11-28T19:58:27.858Z,3.10
2018-11-28T20:00:56.045Z,3.00
2018-11-28T20:03:24.248Z,3.00
2018-11-28T20:05:52.541Z,2.90
2018-11-28T20:08:20.716Z,3.00
2018-11-28T20:10:48.908Z,3.00
2018-11-28T20:13:17.081Z,3.00
2018-11-28T20:15:47.184Z,3.00
2018-11-28T20:18:15.374Z,2.90
2018-11-28T20:20:43.592Z,2.80
2018-11-28T20:23:11.812Z,2.80
2018-11-28T20:25:39.981Z,2.80
2018-11-28T20:28:09.086Z,2.80
2018-11-28T20:30:38.790Z,2.70
2018-11-28T20:33:07.455Z,2.80
2018-11-28T20:35:35.654Z,2.70
2018-11-28T20:38:03.873Z,2.70
2018-11-28T20:40:33.096Z,2.70
2018-11-28T20:43:01.294Z,2.70
2018-11-28T20:45:29.555Z,2.70
2018-11-28T20:47:57.725Z,2.70
2018-11-28T20:50:29.984Z,2.60
2018-11-28T20:53:06.842Z,2.60
2018-11-28T20:55:35.079Z,2.60
2018-11-28T20:58:03.277Z,2.60
2018-11-28T21:00:31.531Z,2.50
2018-11-28T21:02:59.747Z,2.60
2018-11-28T21:05:27.897Z,2.60
2018-11-28T21:07:56.156Z,2.60
2018-11-28T21:10:29.773Z,2.60
2018-11-28T21:12:57.958Z,2.60
2018-11-28T21:15:26.111Z,2.60
2018-11-28T21:17:54.284Z,2.60
2018-11-28T21:20:22.888Z,2.60
2018-11-28T21:22:53.217Z,2.70
2018-11-28T21:25:21.387Z,2.80
2018-11-28T21:27:49.616Z,2.80
2018-11-28T21:30:18.896Z,2.80
2018-11-28T21:32:47.232Z,2.80
2018-11-28T21:35:25.464Z,2.80
2018-11-28T21:37:53.693Z,2.90
2018-11-28T21:40:21.848Z,2.90
2018-11-28T21:42:50.060Z,2.90
2018-11-28T21:45:19.200Z,3.00
2018-11-28T21:47:47.379Z,3.00
2018-11-28T21:50:16.495Z,3.10
2018-11-28T21:52:44.730Z,3.10
2018-11-28T21:55:16.602Z,3.00
2018-11-28T21:57:45.202Z,3.00
2018-11-28T22:00:21.826Z,3.00
2018-11-28T22:02:49.991Z,3.00
2018-11-28T22:05:18.207Z,3.00
2018-11-28T22:07:46.352Z,3.00
2018-11-28T22:10:18.196Z,3.10
2018-11-28T22:12:46.369Z,3.10
2018-11-28T22:15:16.387Z,3.20
2018-11-28T22:17:48.502Z,3.10
2018-11-28T22:20:16.839Z,3.20
2018-11-28T22:22:44.972Z,3.20
2018-11-28T22:25:15.295Z,3.10
2018-11-28T22:27:43.195Z,3.20
2018-11-28T22:30:14.435Z,3.20
2018-11-28T22:32:42.629Z,3.20
2018-11-28T22:35:10.794Z,3.20
2018-11-28T22:37:38.937Z,3.20
2018-11-28T22:40:13.208Z,3.30
2018-11-28T22:42:41.606Z,3.30
2018-11-28T22:45:13.247Z,3.20
2018-11-28T22:47:41.420Z,3.20
2018-11-28T22:50:10.516Z,3.20
2018-11-28T22:52:38.668Z,3.20
2018-11-28T22:55:08.391Z,3.20
2018-11-28T22:57:36.771Z,3.20
2018-11-28T23:00:31.393Z,3.20
2018-11-28T23:03:07.452Z,3.30
2018-11-28T23:05:39.360Z,3.30
2018-11-28T23:08:09.262Z,3.40
2018-11-28T23:10:37.913Z,3.40
2018-11-28T23:13:06.668Z,3.40
2018-11-28T23:15:35.024Z,3.40
2018-11-28T23:18:03.212Z,3.30
2018-11-28T23:20:31.387Z,3.30
2018-11-28T23:22:59.505Z,3.30
2018-11-28T23:25:27.644Z,3.30
2018-11-28T23:27:55.804Z,3.30
2018-11-28T23:30:23.966Z,3.30
2018-11-28T23:32:53.781Z,3.30
2018-11-28T23:35:22.274Z,3.30
2018-11-28T23:37:50.541Z,3.30
2018-11-28T23:40:22.417Z,3.30
2018-11-28T23:42:50.928Z,3.30
2018-11-28T23:45:19.147Z,3.30
2018-11-28T23:47:47.465Z,3.30
2018-11-28T23:50:20.169Z,3.30
2018-11-28T23:52:48.632Z,3.30
2018-11-28T23:55:22.424Z,3.20
2018-11-28T23:57:50.579Z,3.30
